createdAt,value
2017-11-16T00:02:07.053Z,95.15
2017-11-16T00:04:34.651Z,95.14
2017-11-16T00:07:03.039Z,94.87
2017-11-16T00:09:30.642Z,94.92
2017-11-16T00:11:58.258Z,94.64
2017-11-16T00:14:25.850Z,94.49
2017-11-16T00:16:53.414Z,94.65
2017-11-16T00:19:20.979Z,94.75
2017-11-16T00:21:48.620Z,94.85
2017-11-16T00:24:16.172Z,95.16
2017-11-16T00:26:43.749Z,95.35
2017-11-16T00:29:11.408Z,95.06
2017-11-16T00:31:38.976Z,94.79
2017-11-16T00:34:06.705Z,94.52
2017-11-16T00:36:34.304Z,94.37
2017-11-16T00:39:01.855Z,94.12
2017-11-16T00:41:29.421Z,94.12
2017-11-16T00:43:57.027Z,94.21
2017-11-16T00:46:24.597Z,94.61
2017-11-16T00:48:52.155Z,95.34
2017-11-16T00:51:19.835Z,95.38
2017-11-16T00:53:47.405Z,95.69
2017-11-16T00:56:15.008Z,96.02
2017-11-16T00:58:42.601Z,96.35
2017-11-16T01:01:10.182Z,96.21
2017-11-16T01:03:37.780Z,96.19
2017-11-16T01:06:05.350Z,95.72
2017-11-16T01:08:32.904Z,95.53
2017-11-16T01:11:00.531Z,95.44
2017-11-16T01:13:28.153Z,95.47
2017-11-16T01:15:55.722Z,95.40
2017-11-16T01:18:23.695Z,95.36
2017-11-16T01:20:51.292Z,95.77
2017-11-16T01:23:18.883Z,95.93
2017-11-16T01:25:46.508Z,96.05
2017-11-16T01:28:14.116Z,96.09
2017-11-16T01:30:41.661Z,95.76
2017-11-16T01:33:09.360Z,95.64
2017-11-16T01:35:36.992Z,95.46
2017-11-16T01:38:04.630Z,95.42
2017-11-16T01:40:32.203Z,94.82
2017-11-16T01:42:59.782Z,94.33
2017-11-16T01:45:27.394Z,94.86
2017-11-16T01:47:55.008Z,94.58
2017-11-16T01:50:22.582Z,95.11
2017-11-16T01:52:50.211Z,95.33
2017-11-16T01:55:17.768Z,95.73
2017-11-16T01:57:45.327Z,95.82
2017-11-16T02:00:12.959Z,95.84
2017-11-16T02:02:40.601Z,95.96
2017-11-16T02:05:08.219Z,96.01
2017-11-16T02:07:35.835Z,95.68
2017-11-16T02:10:03.419Z,95.67
2017-11-16T02:12:30.996Z,96.08
2017-11-16T02:14:58.619Z,95.99
2017-11-16T02:17:26.198Z,95.46
2017-11-16T02:19:53.782Z,95.55
2017-11-16T02:22:21.409Z,95.33
2017-11-16T02:24:49.020Z,95.71
2017-11-16T02:27:16.629Z,95.84
2017-11-16T02:29:44.303Z,95.60
2017-11-16T02:32:11.897Z,95.26
2017-11-16T02:34:39.566Z,95.61
2017-11-16T02:37:07.391Z,95.54
2017-11-16T02:39:35.067Z,95.45
2017-11-16T02:42:02.979Z,95.46
2017-11-16T02:44:31.088Z,95.55
2017-11-16T02:46:59.065Z,95.91
2017-11-16T02:49:26.674Z,95.80
2017-11-16T02:51:54.334Z,95.80
2017-11-16T02:54:22.035Z,96.37
2017-11-16T02:56:49.607Z,96.26
2017-11-16T02:59:17.212Z,95.97
2017-11-16T03:01:44.821Z,96.00
2017-11-16T03:04:12.427Z,95.70
2017-11-16T03:06:40.132Z,95.59
2017-11-16T03:09:07.987Z,95.34
2017-11-16T03:11:35.562Z,95.93
2017-11-16T03:14:03.191Z,95.50
2017-11-16T03:16:30.832Z,95.79
2017-11-16T03:18:58.422Z,95.70
2017-11-16T03:21:26.035Z,95.48
2017-11-16T03:23:53.629Z,95.73
2017-11-16T03:26:21.208Z,95.21
2017-11-16T03:28:48.787Z,94.55
2017-11-16T03:31:16.410Z,94.82
2017-11-16T03:33:43.972Z,95.22
2017-11-16T03:36:11.552Z,95.33
2017-11-16T03:38:39.241Z,95.26
2017-11-16T03:41:06.842Z,95.49
2017-11-16T03:43:34.407Z,95.54
2017-11-16T03:46:02.736Z,95.82
2017-11-16T03:48:30.278Z,95.92
2017-11-16T03:50:57.946Z,95.72
2017-11-16T03:53:25.566Z,95.77
2017-11-16T03:55:53.235Z,95.74
2017-11-16T03:58:21.421Z,95.92
2017-11-16T04:00:49.013Z,96.01
2017-11-16T04:03:16.620Z,95.71
2017-11-16T04:05:44.211Z,95.94
2017-11-16T04:08:11.763Z,95.88
2017-11-16T04:10:39.334Z,95.98
2017-11-16T04:13:06.949Z,95.91
2017-11-16T04:15:34.584Z,95.70
2017-11-16T04:18:02.189Z,95.72
2017-11-16T04:20:30.471Z,95.60
2017-11-16T04:22:58.154Z,95.43
2017-11-16T04:25:25.728Z,95.55
2017-11-16T04:27:53.333Z,95.26
2017-11-16T04:30:20.955Z,95.62
2017-11-16T04:32:48.540Z,95.48
2017-11-16T04:35:16.391Z,95.27
2017-11-16T04:37:43.950Z,94.40
2017-11-16T04:40:11.556Z,93.75
2017-11-16T04:42:39.203Z,93.56
2017-11-16T04:45:06.808Z,94.33
2017-11-16T04:47:34.372Z,94.21
2017-11-16T04:50:02.000Z,94.59
2017-11-16T04:52:29.573Z,94.86
2017-11-16T04:54:57.177Z,94.86
2017-11-16T04:57:24.995Z,94.83
2017-11-16T04:59:52.595Z,94.84
2017-11-16T05:02:20.213Z,94.76
2017-11-16T05:04:47.884Z,94.61
2017-11-16T05:07:15.445Z,94.58
2017-11-16T05:09:43.016Z,94.48
2017-11-16T05:12:10.616Z,94.41
2017-11-16T05:14:38.175Z,94.47
2017-11-16T05:17:05.837Z,94.48
2017-11-16T05:19:33.401Z,94.48
2017-11-16T05:22:00.999Z,94.40
2017-11-16T05:24:28.633Z,94.20
2017-11-16T05:26:56.210Z,94.51
2017-11-16T05:29:23.764Z,94.82
2017-11-16T05:31:51.354Z,94.75
2017-11-16T05:34:18.953Z,94.61
2017-11-16T05:36:46.536Z,94.77
2017-11-16T05:39:14.252Z,94.89
2017-11-16T05:41:41.852Z,94.96
2017-11-16T05:44:09.511Z,94.69
2017-11-16T05:46:37.104Z,94.62
2017-11-16T05:49:04.773Z,94.55
2017-11-16T05:51:32.424Z,94.60
2017-11-16T05:54:00.007Z,94.66
2017-11-16T05:56:27.601Z,94.65
2017-11-16T05:58:55.317Z,94.64
2017-11-16T06:01:22.931Z,94.14
2017-11-16T06:03:50.522Z,94.09
2017-11-16T06:06:18.109Z,94.37
2017-11-16T06:08:45.697Z,94.31
2017-11-16T06:11:13.879Z,94.15
2017-11-16T06:13:41.543Z,94.04
2017-11-16T06:16:09.172Z,94.04
2017-11-16T06:18:36.737Z,93.80
2017-11-16T06:21:04.368Z,93.66
2017-11-16T06:23:31.997Z,93.13
2017-11-16T06:25:59.554Z,92.47
2017-11-16T06:28:27.199Z,92.85
2017-11-16T06:30:54.786Z,92.74
2017-11-16T06:33:22.381Z,92.63
2017-11-16T06:35:49.976Z,92.94
2017-11-16T06:38:17.539Z,92.99
2017-11-16T06:40:45.108Z,93.15
2017-11-16T06:43:12.692Z,93.27
2017-11-16T06:45:40.342Z,93.29
2017-11-16T06:48:08.004Z,93.42
2017-11-16T06:50:36.062Z,93.13
2017-11-16T06:53:03.672Z,92.98
2017-11-16T06:55:31.329Z,92.83
2017-11-16T06:57:58.918Z,92.78
2017-11-16T07:00:26.559Z,92.91
2017-11-16T07:02:54.203Z,93.09
2017-11-16T07:05:21.780Z,93.17
2017-11-16T07:07:49.403Z,93.31
2017-11-16T07:10:17.063Z,93.55
2017-11-16T07:12:44.657Z,93.63
2017-11-16T07:15:12.261Z,93.56
2017-11-16T07:17:39.990Z,93.68
2017-11-16T07:20:07.559Z,93.75
2017-11-16T07:22:35.130Z,93.48
2017-11-16T07:25:02.720Z,93.46
2017-11-16T07:27:30.362Z,93.36
2017-11-16T07:29:57.933Z,93.44
2017-11-16T07:32:25.517Z,93.45
2017-11-16T07:34:53.153Z,93.41
2017-11-16T07:37:20.852Z,93.42
2017-11-16T07:39:48.460Z,93.53
2017-11-16T07:42:16.059Z,93.29
2017-11-16T07:44:43.721Z,93.42
2017-11-16T07:47:11.402Z,93.67
2017-11-16T07:49:39.015Z,93.55
2017-11-16T07:52:06.591Z,93.35
2017-11-16T07:54:34.206Z,93.27
2017-11-16T07:57:01.807Z,93.58
2017-11-16T07:59:29.362Z,93.68
2017-11-16T08:01:57.102Z,93.46
2017-11-16T08:04:24.673Z,93.65
2017-11-16T08:06:52.238Z,93.44
2017-11-16T08:09:19.833Z,92.94
2017-11-16T08:11:47.418Z,92.99
2017-11-16T08:14:15.086Z,92.91
2017-11-16T08:16:42.689Z,92.86
2017-11-16T08:19:10.375Z,92.82
2017-11-16T08:21:37.960Z,92.11
2017-11-16T08:24:05.548Z,90.81
2017-11-16T08:26:33.092Z,91.45
2017-11-16T08:29:00.662Z,91.85
2017-11-16T08:31:28.303Z,91.31
2017-11-16T08:33:55.847Z,90.94
2017-11-16T08:36:24.115Z,89.54
2017-11-16T08:38:51.747Z,89.80
2017-11-16T08:41:19.314Z,89.26
2017-11-16T08:43:46.881Z,88.75
2017-11-16T08:46:14.533Z,88.70
2017-11-16T08:48:43.011Z,87.89
2017-11-16T08:51:10.991Z,88.85
2017-11-16T08:53:38.621Z,89.52
2017-11-16T08:56:06.220Z,89.98
2017-11-16T08:58:33.811Z,89.97
2017-11-16T09:01:01.424Z,91.14
2017-11-16T09:03:28.989Z,90.93
2017-11-16T09:05:56.560Z,87.75
2017-11-16T09:08:24.224Z,88.04
2017-11-16T09:10:51.796Z,86.63
2017-11-16T09:13:19.391Z,87.57
2017-11-16T09:15:47.112Z,87.40
2017-11-16T09:18:14.665Z,87.15
2017-11-16T09:20:42.247Z,85.35
2017-11-16T09:23:10.096Z,82.78
2017-11-16T09:25:37.713Z,81.89
2017-11-16T09:28:05.297Z,81.77
2017-11-16T09:30:34.592Z,81.88
2017-11-16T09:33:02.151Z,81.46
2017-11-16T09:35:29.877Z,82.02
2017-11-16T09:37:57.494Z,83.97
2017-11-16T09:40:25.459Z,83.15
2017-11-16T09:42:53.065Z,81.15
2017-11-16T09:45:20.690Z,80.03
2017-11-16T09:47:48.289Z,81.58
2017-11-16T09:50:15.852Z,82.19
2017-11-16T09:52:43.545Z,81.59
2017-11-16T09:55:11.253Z,80.76
2017-11-16T09:57:38.878Z,81.54
2017-11-16T10:00:06.815Z,79.62
2017-11-16T10:02:34.406Z,78.02
2017-11-16T10:05:02.045Z,78.61
2017-11-16T10:07:30.082Z,79.81
2017-11-16T10:09:57.653Z,78.13
2017-11-16T10:12:25.228Z,79.11
2017-11-16T10:14:52.811Z,78.87
2017-11-16T10:17:20.357Z,75.47
2017-11-16T10:19:47.975Z,75.51
2017-11-16T10:22:15.799Z,77.41
2017-11-16T10:24:43.355Z,77.69
2017-11-16T10:27:11.052Z,78.93
2017-11-16T10:29:38.657Z,79.00
2017-11-16T10:32:06.223Z,79.42
2017-11-16T10:34:33.797Z,80.25
2017-11-16T10:37:01.427Z,80.95
2017-11-16T10:39:30.258Z,79.31
2017-11-16T10:41:57.856Z,78.74
2017-11-16T10:44:25.475Z,78.12
2017-11-16T10:46:53.098Z,75.29
2017-11-16T10:49:20.960Z,75.53
2017-11-16T10:51:48.567Z,74.80
2017-11-16T10:54:16.150Z,70.99
2017-11-16T10:56:43.747Z,68.71
2017-11-16T10:59:11.429Z,67.60
2017-11-16T11:01:39.116Z,69.33
2017-11-16T11:04:06.786Z,67.66
2017-11-16T11:06:34.421Z,66.27
2017-11-16T11:09:02.017Z,66.67
2017-11-16T11:11:29.583Z,65.69
2017-11-16T11:13:58.196Z,66.59
2017-11-16T11:16:25.769Z,66.14
2017-11-16T11:18:53.358Z,65.63
2017-11-16T11:21:20.987Z,64.51
2017-11-16T11:23:49.881Z,65.04
2017-11-16T11:26:17.472Z,63.16
2017-11-16T11:28:45.087Z,62.58
2017-11-16T11:31:13.278Z,61.86
2017-11-16T11:33:40.838Z,62.54
2017-11-16T11:36:08.788Z,64.32
2017-11-16T11:38:37.471Z,63.67
2017-11-16T11:41:05.113Z,62.45
2017-11-16T11:43:32.713Z,63.18
2017-11-16T11:46:00.417Z,63.08
2017-11-16T11:48:27.975Z,62.74
2017-11-16T11:50:55.861Z,61.83
2017-11-16T11:53:23.575Z,60.54
2017-11-16T11:55:51.135Z,59.21
2017-11-16T11:58:19.274Z,57.64
2017-11-16T12:00:46.897Z,52.18
2017-11-16T12:03:14.656Z,47.89
2017-11-16T12:05:42.498Z,44.84
2017-11-16T12:08:10.079Z,44.27
2017-11-16T12:10:37.641Z,44.96
2017-11-16T12:13:05.285Z,44.04
2017-11-16T12:15:33.079Z,44.12
2017-11-16T12:18:00.633Z,45.55
2017-11-16T12:20:28.193Z,45.29
2017-11-16T12:22:55.882Z,45.70
2017-11-16T12:25:23.451Z,44.27
2017-11-16T12:27:51.040Z,42.41
2017-11-16T12:30:22.449Z,42.25
2017-11-16T12:32:50.041Z,41.97
2017-11-16T12:35:17.629Z,43.08
2017-11-16T12:37:45.241Z,42.45
2017-11-16T12:40:12.864Z,40.65
2017-11-16T12:42:40.450Z,40.94
2017-11-16T12:45:08.176Z,40.21
2017-11-16T12:47:35.767Z,41.88
2017-11-16T12:50:03.344Z,42.45
2017-11-16T12:52:30.979Z,43.75
2017-11-16T12:54:58.540Z,42.15
2017-11-16T12:57:26.557Z,41.26
2017-11-16T12:59:54.355Z,43.10
2017-11-16T13:02:21.993Z,45.05
2017-11-16T13:04:49.534Z,45.23
2017-11-16T13:07:17.206Z,45.51
2017-11-16T13:09:44.788Z,43.72
2017-11-16T13:12:12.352Z,43.81
2017-11-16T13:14:39.988Z,45.66
2017-11-16T13:17:07.561Z,48.06
2017-11-16T13:19:35.646Z,50.20
2017-11-16T13:22:03.276Z,46.88
2017-11-16T13:24:30.856Z,44.60
2017-11-16T13:26:58.422Z,45.79
2017-11-16T13:29:26.456Z,46.45
2017-11-16T13:31:54.134Z,50.04
2017-11-16T13:34:21.727Z,50.49
2017-11-16T13:36:49.290Z,49.31
2017-11-16T13:39:16.927Z,49.48
2017-11-16T13:41:44.511Z,46.59
2017-11-16T13:44:12.073Z,46.59
2017-11-16T13:46:39.643Z,48.72
2017-11-16T13:49:07.356Z,47.68
2017-11-16T13:51:34.994Z,47.88
2017-11-16T13:54:02.629Z,48.20
2017-11-16T13:56:30.420Z,49.82
2017-11-16T13:58:57.988Z,50.39
2017-11-16T14:01:25.635Z,49.16
2017-11-16T14:03:53.228Z,50.99
2017-11-16T14:06:20.976Z,52.98
2017-11-16T14:08:48.676Z,52.54
2017-11-16T14:11:16.275Z,53.22
2017-11-16T14:13:43.869Z,51.02
2017-11-16T14:16:11.463Z,52.56
2017-11-16T14:18:39.018Z,53.02
2017-11-16T14:21:06.708Z,54.14
2017-11-16T14:23:34.301Z,54.83
2017-11-16T14:26:01.885Z,56.02
2017-11-16T14:28:29.485Z,56.04
2017-11-16T14:30:57.046Z,56.42
2017-11-16T14:33:24.668Z,58.73
2017-11-16T14:35:52.244Z,60.06
2017-11-16T14:38:20.192Z,61.21
2017-11-16T14:40:47.760Z,61.42
2017-11-16T14:43:15.444Z,62.53
2017-11-16T14:45:43.050Z,63.74
2017-11-16T14:48:10.598Z,64.05
2017-11-16T14:50:38.177Z,65.05
2017-11-16T14:53:05.814Z,65.48
2017-11-16T14:55:33.423Z,66.47
2017-11-16T14:58:01.093Z,66.96
2017-11-16T15:00:28.706Z,67.45
2017-11-16T15:02:56.307Z,68.52
2017-11-16T15:05:23.867Z,69.16
2017-11-16T15:07:51.434Z,69.90
2017-11-16T15:10:19.048Z,70.02
2017-11-16T15:12:46.695Z,70.80
2017-11-16T15:15:14.589Z,71.55
2017-11-16T15:17:42.168Z,73.91
2017-11-16T15:20:11.122Z,76.34
2017-11-16T15:22:38.707Z,78.05
2017-11-16T15:25:06.459Z,78.83
2017-11-16T15:27:34.167Z,79.50
2017-11-16T15:30:02.288Z,79.90
2017-11-16T15:32:29.888Z,80.52
2017-11-16T15:34:57.434Z,81.28
2017-11-16T15:37:25.063Z,81.81
2017-11-16T15:39:52.603Z,81.04
2017-11-16T15:42:20.157Z,82.55
2017-11-16T15:44:47.805Z,83.29
2017-11-16T15:47:15.399Z,83.55
2017-11-16T15:49:44.096Z,84.14
2017-11-16T15:52:11.781Z,84.75
2017-11-16T15:54:39.371Z,85.48
2017-11-16T15:57:07.142Z,85.74
2017-11-16T15:59:36.149Z,85.89
2017-11-16T16:02:03.709Z,86.33
2017-11-16T16:04:31.329Z,87.03
2017-11-16T16:06:58.935Z,85.96
2017-11-16T16:09:26.522Z,86.57
2017-11-16T16:11:54.177Z,86.88
2017-11-16T16:14:22.272Z,86.84
2017-11-16T16:16:49.860Z,87.15
2017-11-16T16:19:17.460Z,87.47
2017-11-16T16:21:45.007Z,87.84
2017-11-16T16:24:17.671Z,88.23
2017-11-16T16:26:45.234Z,88.30
2017-11-16T16:29:12.970Z,88.70
2017-11-16T16:31:40.616Z,88.73
2017-11-16T16:34:08.212Z,88.61
2017-11-16T16:36:35.858Z,88.18
2017-11-16T16:39:03.456Z,87.53
2017-11-16T16:41:31.011Z,87.43
2017-11-16T16:43:58.598Z,87.69
2017-11-16T16:46:26.598Z,87.61
2017-11-16T16:48:54.144Z,87.58
2017-11-16T16:51:21.968Z,87.64
2017-11-16T16:53:49.576Z,87.67
2017-11-16T16:56:17.179Z,87.99
2017-11-16T16:58:44.822Z,88.22
2017-11-16T17:01:12.383Z,87.99
2017-11-16T17:03:39.979Z,88.57
2017-11-16T17:06:07.563Z,88.91
2017-11-16T17:08:35.115Z,89.22
2017-11-16T17:11:02.688Z,89.38
2017-11-16T17:13:30.248Z,89.31
2017-11-16T17:15:57.839Z,89.55
2017-11-16T17:18:25.620Z,89.72
2017-11-16T17:20:53.201Z,90.16
2017-11-16T17:23:21.235Z,89.96
2017-11-16T17:25:49.047Z,89.87
2017-11-16T17:28:16.649Z,90.35
2017-11-16T17:30:44.220Z,90.32
2017-11-16T17:33:11.931Z,90.85
2017-11-16T17:35:39.519Z,91.25
2017-11-16T17:38:07.104Z,91.40
2017-11-16T17:40:34.711Z,91.37
2017-11-16T17:43:02.347Z,91.20
2017-11-16T17:45:30.349Z,91.43
2017-11-16T17:47:57.898Z,91.04
2017-11-16T17:50:25.489Z,90.96
2017-11-16T17:52:53.081Z,91.10
2017-11-16T17:55:20.671Z,91.16
2017-11-16T17:57:48.386Z,91.17
2017-11-16T18:00:15.943Z,91.47
2017-11-16T18:02:43.506Z,91.19
2017-11-16T18:05:11.381Z,91.44
2017-11-16T18:07:38.955Z,91.54
2017-11-16T18:10:06.510Z,91.78
2017-11-16T18:12:34.236Z,91.88
2017-11-16T18:15:01.823Z,91.67
2017-11-16T18:17:29.427Z,91.30
2017-11-16T18:19:57.036Z,91.54
2017-11-16T18:22:24.602Z,91.70
2017-11-16T18:24:52.180Z,91.46
2017-11-16T18:27:20.133Z,91.46
2017-11-16T18:29:47.711Z,91.57
2017-11-16T18:32:15.298Z,91.54
2017-11-16T18:34:42.973Z,91.38
2017-11-16T18:37:10.746Z,91.60
2017-11-16T18:39:38.357Z,91.62
2017-11-16T18:42:05.997Z,91.75
2017-11-16T18:44:35.398Z,91.69
2017-11-16T18:47:02.980Z,91.78
2017-11-16T18:49:30.810Z,92.04
2017-11-16T18:51:58.400Z,92.18
2017-11-16T18:54:25.998Z,92.49
2017-11-16T18:56:53.609Z,92.48
2017-11-16T18:59:21.206Z,92.51
2017-11-16T19:01:48.784Z,92.31
2017-11-16T19:04:16.438Z,92.16
2017-11-16T19:06:44.031Z,92.03
2017-11-16T19:09:12.099Z,91.91
2017-11-16T19:11:39.811Z,91.95
2017-11-16T19:14:09.129Z,91.64
2017-11-16T19:16:36.791Z,91.43
2017-11-16T19:19:04.438Z,91.39
2017-11-16T19:21:32.135Z,90.46
2017-11-16T19:23:59.707Z,90.36
2017-11-16T19:26:27.348Z,90.16
2017-11-16T19:28:54.924Z,90.06
2017-11-16T19:31:22.480Z,90.54
2017-11-16T19:33:50.051Z,89.88
2017-11-16T19:36:17.596Z,89.34
2017-11-16T19:38:45.223Z,88.73
2017-11-16T19:41:12.781Z,89.27
2017-11-16T19:43:40.366Z,89.74
2017-11-16T19:46:07.957Z,89.50
2017-11-16T19:48:36.430Z,89.71
2017-11-16T19:51:04.466Z,88.96
2017-11-16T19:53:32.162Z,89.10
2017-11-16T19:55:59.962Z,88.85
2017-11-16T19:58:27.602Z,88.63
2017-11-16T20:00:55.204Z,88.87
2017-11-16T20:03:22.791Z,88.79
2017-11-16T20:05:50.500Z,88.88
2017-11-16T20:08:18.204Z,88.91
2017-11-16T20:10:45.894Z,88.07
2017-11-16T20:13:13.741Z,87.59
2017-11-16T20:15:41.446Z,87.66
2017-11-16T20:18:09.117Z,88.37
2017-11-16T20:20:36.801Z,87.81
2017-11-16T20:23:04.437Z,87.82
2017-11-16T20:25:32.100Z,86.83
2017-11-16T20:27:59.678Z,86.87
2017-11-16T20:30:27.256Z,86.79
2017-11-16T20:35:57.695Z,87.90
2017-11-16T20:41:36.216Z,87.85
2017-11-16T20:44:11.938Z,87.49
2017-11-16T20:46:40.226Z,87.73
2017-11-16T20:49:13.262Z,87.95
2017-11-16T20:54:48.866Z,87.57
2017-11-16T20:57:16.409Z,87.33
2017-11-16T20:59:43.919Z,87.37
2017-11-16T21:02:11.479Z,87.81
2017-11-16T21:04:39.065Z,88.46
2017-11-16T21:07:06.748Z,89.04
2017-11-16T21:09:34.409Z,89.61
2017-11-16T21:12:01.999Z,89.85
2017-11-16T21:14:29.597Z,90.25
2017-11-16T21:16:57.168Z,90.02
2017-11-16T21:19:24.765Z,89.97
2017-11-16T21:21:52.327Z,89.87
2017-11-16T21:24:19.889Z,89.46
2017-11-16T21:26:47.547Z,89.10
2017-11-16T21:29:15.106Z,88.73
2017-11-16T21:31:42.992Z,88.74
2017-11-16T21:34:10.612Z,88.34
2017-11-16T21:36:38.151Z,88.55
2017-11-16T21:39:05.731Z,88.29
2017-11-16T21:41:33.919Z,87.75
2017-11-16T21:44:01.527Z,87.95
2017-11-16T21:46:29.086Z,88.61
2017-11-16T21:48:56.681Z,88.91
2017-11-16T21:51:24.255Z,89.00
2017-11-16T21:53:52.025Z,89.04
2017-11-16T21:56:19.624Z,88.91
2017-11-16T21:58:47.186Z,88.73
2017-11-16T22:01:14.747Z,89.04
2017-11-16T22:03:42.412Z,88.83
2017-11-16T22:06:10.051Z,88.79
2017-11-16T22:08:37.607Z,88.75
2017-11-16T22:11:05.536Z,88.89
2017-11-16T22:13:33.113Z,89.17
2017-11-16T22:16:00.699Z,89.34
2017-11-16T22:18:28.282Z,89.07
2017-11-16T22:20:55.896Z,88.83
2017-11-16T22:23:23.499Z,88.65
2017-11-16T22:25:51.062Z,88.97
2017-11-16T22:28:18.659Z,89.05
2017-11-16T22:30:46.216Z,88.85
2017-11-16T22:33:13.768Z,88.98
2017-11-16T22:35:41.396Z,89.11
2017-11-16T22:38:09.058Z,88.85
2017-11-16T22:40:36.623Z,89.03
2017-11-16T22:43:04.283Z,88.90
2017-11-16T22:45:31.837Z,89.03
2017-11-16T22:47:59.420Z,89.08
2017-11-16T22:50:27.011Z,88.85
2017-11-16T22:52:54.574Z,89.08
2017-11-16T22:55:22.603Z,89.04
2017-11-16T22:57:50.195Z,88.96
2017-11-16T23:00:17.758Z,88.93
2017-11-16T23:02:45.680Z,89.17
2017-11-16T23:05:13.335Z,89.32
2017-11-16T23:07:40.908Z,89.18
2017-11-16T23:10:08.459Z,89.01
2017-11-16T23:12:36.051Z,88.92
2017-11-16T23:15:03.606Z,88.47
2017-11-16T23:17:31.163Z,88.36
2017-11-16T23:19:58.766Z,88.47
2017-11-16T23:22:26.327Z,88.58
2017-11-16T23:24:53.878Z,88.87
2017-11-16T23:27:21.498Z,88.70
2017-11-16T23:29:49.053Z,88.70
2017-11-16T23:32:19.013Z,89.04
2017-11-16T23:34:46.677Z,88.76
2017-11-16T23:37:14.271Z,89.40
2017-11-16T23:39:41.886Z,89.87
2017-11-16T23:42:09.494Z,89.79
2017-11-16T23:44:37.095Z,90.08
2017-11-16T23:47:04.705Z,90.28
2017-11-16T23:49:32.280Z,89.88
2017-11-16T23:51:59.824Z,90.20
2017-11-16T23:54:27.463Z,90.00
2017-11-16T23:56:55.057Z,89.82
2017-11-16T23:59:22.634Z,89.75
